Time;durP1;ratioP1;P1;durP2;ratioP2;P2;SDS_P1;SDS_P2;PMS_P1;PMS_P2;Temp;Humidity;BMP_temperature;BMP_pressure;BME280_temperature;BME280_humidity;BME280_pressure;Samples;Min_cycle;Max_cycle;Signal;HPM_P1;HPM_P2
2023/03/20 00:01:59;;;;;;;18.93;15.87;;;9.20;99.90;;;9.33;91.80;98068.47;5092865;28;20471;-72
2023/03/20 00:04:26;;;;;;;17.90;16.00;;;9.10;99.90;;;9.50;92.07;98090.47;5085203;28;20675;-73
2023/03/20 00:06:53;;;;;;;16.80;15.17;;;9.10;99.90;;;9.12;92.13;98045.19;5112520;27;20894;-70
2023/03/20 00:09:21;;;;;;;16.93;15.37;;;9.00;99.90;;;9.50;91.31;98091.28;5090010;28;20450;-71
2023/03/20 00:11:50;;;;;;;16.93;15.33;;;9.10;99.90;;;9.42;91.47;98096.91;5081666;28;20464;-76
2023/03/20 00:14:21;;;;;;;18.33;16.17;;;9.00;99.90;;;9.41;90.41;98100.63;5086907;28;20530;-70
2023/03/20 00:16:50;;;;;;;17.80;16.17;;;9.00;99.90;;;9.12;91.77;98093.72;5080715;28;20462;-72
2023/03/20 00:19:22;;;;;;;17.57;15.90;;;8.80;99.90;;;9.09;92.59;98100.34;5090787;28;20539;-71
2023/03/20 00:21:50;;;;;;;17.60;15.60;;;8.80;99.90;;;8.91;93.31;98077.50;5083220;28;20515;-78
2023/03/20 00:24:17;;;;;;;18.93;17.20;;;8.70;99.90;;;9.10;93.36;98101.19;5093279;28;20564;-72
2023/03/20 00:26:47;;;;;;;18.07;16.27;;;8.70;99.90;;;9.27;92.64;98090.84;5078545;28;20482;-75
2023/03/20 00:29:21;;;;;;;17.33;15.57;;;8.80;99.90;;;9.13;91.86;98036.06;5078437;28;20581;-72
2023/03/20 00:31:49;;;;;;;18.17;16.27;;;8.90;99.90;;;9.54;90.52;98091.72;5077309;28;20492;-71
2023/03/20 00:34:22;;;;;;;15.37;13.77;;;9.00;99.90;;;9.53;90.04;98094.59;5076888;28;20449;-77
2023/03/20 00:36:49;;;;;;;15.73;14.10;;;9.10;99.90;;;9.04;90.77;98028.22;5113433;27;20457;-74
2023/03/20 00:39:17;;;;;;;11.60;10.60;;;9.10;99.90;;;9.40;89.98;98096.28;5118055;27;20878;-71
2023/03/20 00:41:49;;;;;;;10.17;9.30;;;9.10;99.90;;;9.45;89.33;98098.31;5122402;28;20426;-71
2023/03/20 00:44:22;;;;;;;9.97;9.20;;;9.10;99.90;;;9.52;87.16;98096.47;5099011;28;20498;-73
2023/03/20 00:46:54;;;;;;;9.80;8.80;;;9.20;99.90;;;9.32;87.65;98099.16;5097670;28;20499;-75
2023/03/20 00:49:27;;;;;;;8.97;8.17;;;9.10;99.90;;;9.27;87.95;98096.25;5099909;28;20445;-71
2023/03/20 00:51:54;;;;;;;10.70;8.40;;;9.10;99.90;;;9.38;87.59;98086.72;5108032;28;20465;-74
2023/03/20 00:54:21;;;;;;;9.63;8.73;;;9.20;99.90;;;9.37;86.85;98090.44;5128893;27;20481;-71
2023/03/20 00:56:56;;;;;;;8.00;7.30;;;9.10;99.90;;;9.55;86.39;98092.53;5111569;27;20927;-70
2023/03/20 00:59:29;;;;;;;9.13;7.97;;;9.10;99.90;;;9.35;87.21;98099.56;5097941;28;20453;-71
2023/03/20 01:01:57;;;;;;;7.80;7.10;;;9.10;99.90;;;9.38;86.33;98092.94;5113687;28;20681;-73
2023/03/20 01:04:35;;;;;;;7.60;6.90;;;9.10;99.90;;;9.40;86.45;98096.28;5113450;28;20454;-73
2023/03/20 01:07:02;;;;;;;7.90;7.20;;;9.10;99.90;;;9.24;86.05;98077.75;5105464;28;20467;-71
2023/03/20 01:09:29;;;;;;;7.97;7.27;;;9.00;99.90;;;8.87;86.14;98016.13;5112945;27;20467;-71
2023/03/20 01:11:58;;;;;;;8.90;7.77;;;9.00;99.90;;;9.41;86.24;98097.94;5078997;28;20510;-73
2023/03/20 01:14:26;;;;;;;7.23;6.63;;;9.00;99.90;;;9.42;86.01;98088.81;5094401;28;20807;-70
2023/03/20 01:16:53;;;;;;;7.70;6.90;;;9.00;99.90;;;9.45;85.54;98087.53;5086349;28;20447;-74
2023/03/20 01:19:20;;;;;;;7.60;6.90;;;9.00;99.90;;;9.50;85.96;98088.59;5084371;28;20429;-71
2023/03/20 01:21:49;;;;;;;7.30;6.70;;;9.00;99.90;;;9.59;85.41;98086.50;5093469;28;20449;-74
2023/03/20 01:24:16;;;;;;;8.57;7.77;;;9.10;99.90;;;9.48;85.64;98077.19;5094202;28;20569;-71
2023/03/20 01:26:45;;;;;;;7.70;7.00;;;9.10;99.90;;;9.53;85.66;98073.88;5103114;27;20450;-71
2023/03/20 01:29:19;;;;;;;8.13;7.43;;;9.10;99.90;;;9.53;85.49;98081.97;5079111;28;20457;-71
2023/03/20 01:31:48;;;;;;;7.47;6.87;;;9.10;99.90;;;9.45;85.66;98076.75;5085621;28;20457;-75
2023/03/20 01:34:16;;;;;;;8.13;7.40;;;9.00;99.90;;;9.51;84.70;98094.81;5082752;28;20943;-73
2023/03/20 01:36:50;;;;;;;7.63;7.03;;;9.10;99.90;;;9.49;84.93;98095.00;5078413;28;20491;-74
2023/03/20 01:39:17;;;;;;;8.10;7.40;;;9.00;99.90;;;9.46;85.68;98094.59;5080945;28;20527;-75
2023/03/20 01:41:46;;;;;;;8.20;7.37;;;9.00;99.90;;;9.33;86.25;98090.88;5107930;28;20450;-71
2023/03/20 01:44:22;;;;;;;7.70;7.00;;;8.90;99.90;;;9.53;85.81;98100.84;5091187;28;20467;-71
2023/03/20 01:46:52;;;;;;;7.83;7.13;;;9.00;99.90;;;9.59;85.00;98091.91;5082849;28;20874;-72
2023/03/20 01:50:17;;;;;;;7.20;6.60;;;9.20;99.90;;;9.66;84.11;98102.69;5078160;28;20955;-70
2023/03/20 01:52:48;;;;;;;7.30;6.70;;;9.30;99.90;;;9.63;84.93;98105.81;5084243;28;20960;-72
2023/03/20 01:55:15;;;;;;;7.40;6.80;;;9.30;99.90;;;9.65;84.09;98103.72;5092411;28;20450;-69
2023/03/20 01:57:43;;;;;;;8.20;7.40;;;9.30;99.90;;;9.72;84.32;98109.13;5089586;28;20474;-70
2023/03/20 02:00:14;;;;;;;9.07;8.27;;;9.30;99.90;;;9.68;83.89;98094.41;5106509;27;20477;-75
2023/03/20 02:02:43;;;;;;;7.93;7.23;;;9.30;99.90;;;9.69;83.61;98113.06;5078625;28;20990;-72
2023/03/20 02:05:12;;;;;;;7.53;6.90;;;9.40;99.90;;;9.76;83.71;98110.38;5098880;28;20555;-74
2023/03/20 02:07:40;;;;;;;8.00;7.30;;;9.40;99.90;;;9.63;84.42;98114.75;5085714;28;20444;-73
2023/03/20 02:10:13;;;;;;;7.90;6.90;;;9.40;99.90;;;9.55;84.56;98096.06;5092113;28;20455;-71
2023/03/20 02:12:41;;;;;;;8.53;7.83;;;9.40;99.90;;;9.64;84.71;98116.41;5124135;27;20456;-71
2023/03/20 02:15:11;;;;;;;8.10;7.40;;;9.40;99.90;;;9.78;83.96;98102.91;5080624;28;20816;-72
2023/03/20 02:17:38;;;;;;;8.60;7.80;;;9.50;99.90;;;9.71;83.40;98102.94;5085749;28;20454;-72
2023/03/20 02:20:22;;;;;;;8.50;7.80;;;9.40;99.90;;;9.73;83.42;98100.84;5099488;28;20508;-72
2023/03/20 02:23:48;;;;;;;8.70;7.50;;;9.30;99.90;;;9.75;84.31;98111.41;5098204;27;21540;-73
2023/03/20 02:26:45;;;;;;;7.70;6.83;;;9.20;99.90;;;9.49;84.27;98110.38;5094508;27;20466;-71
2023/03/20 02:30:14;;;;;;;8.27;7.50;;;9.30;99.90;;;9.44;84.24;98119.09;5082509;28;20568;-74
2023/03/20 02:33:56;;;;;;;7.70;7.10;;;9.30;99.90;;;9.26;84.52;98106.19;5104428;28;20566;-78
2023/03/20 02:37:14;;;;;;;8.47;7.77;;;9.20;99.90;;;9.22;85.64;98110.34;5089114;28;20455;-71
2023/03/20 02:40:05;;;;;;;8.43;7.63;;;9.00;99.90;;;9.18;86.39;98125.28;5083662;28;20475;-72
2023/03/20 02:42:39;;;;;;;9.00;8.30;;;8.90;99.90;;;9.28;85.28;98112.22;5089519;28;20920;-71
2023/03/20 02:45:15;;;;;;;9.47;8.67;;;9.00;99.90;;;9.22;85.65;98107.66;5088348;27;20525;-71
2023/03/20 02:47:50;;;;;;;9.10;8.30;;;9.00;99.90;;;9.20;85.99;98118.63;5088978;28;20470;-74
2023/03/20 02:50:27;;;;;;;8.67;7.87;;;9.00;99.90;;;9.22;86.00;98131.91;5102431;27;20449;-72
2023/03/20 02:53:08;;;;;;;8.97;8.07;;;8.90;99.90;;;9.31;85.51;98127.16;5087550;28;20579;-73
2023/03/20 02:55:43;;;;;;;9.60;8.80;;;9.00;99.90;;;8.91;86.72;98117.91;5093917;28;20448;-72
2023/03/20 02:58:16;;;;;;;9.97;9.00;;;9.00;99.90;;;9.02;86.69;98131.84;5077967;28;20448;-71
2023/03/20 03:00:50;;;;;;;10.30;9.30;;;8.90;99.90;;;9.17;86.44;98128.97;5080851;28;20458;-75
2023/03/20 03:03:24;;;;;;;9.80;8.90;;;9.00;99.90;;;9.06;86.38;98117.78;5089003;28;20539;-71
2023/03/20 03:05:57;;;;;;;10.67;9.77;;;9.00;99.90;;;9.30;85.61;98125.50;5101530;27;20491;-71
2023/03/20 03:08:32;;;;;;;10.10;9.20;;;9.00;99.90;;;9.23;85.99;98117.38;5104529;28;20479;-73
2023/03/20 03:11:06;;;;;;;9.60;8.70;;;9.00;99.90;;;9.17;86.09;98135.22;5087606;28;20695;-74
2023/03/20 03:13:39;;;;;;;10.73;9.63;;;8.90;99.90;;;9.26;85.81;98133.16;5078196;28;20920;-71
2023/03/20 03:16:12;;;;;;;10.87;9.87;;;8.90;99.90;;;9.18;86.92;98136.06;5065632;28;20900;-70
2023/03/20 03:18:40;;;;;;;11.10;10.10;;;8.90;99.90;;;9.06;86.77;98133.94;5068895;28;20522;-72
2023/03/20 03:21:09;;;;;;;11.23;10.13;;;8.80;99.90;;;9.09;87.10;98137.25;5067685;28;20932;-72
2023/03/20 03:23:43;;;;;;;10.80;9.70;;;8.80;99.90;;;8.92;87.24;98132.22;5070470;28;20464;-74
2023/03/20 03:26:18;;;;;;;11.37;10.10;;;8.80;99.90;;;8.93;87.60;98144.66;5072666;28;20482;-70
2023/03/20 03:28:51;;;;;;;12.30;11.00;;;8.70;99.90;;;8.88;87.37;98142.56;5086429;28;20513;-70
2023/03/20 03:31:20;;;;;;;11.77;10.70;;;8.70;99.90;;;8.77;88.01;98138.59;5083780;28;20506;-72
2023/03/20 03:33:53;;;;;;;13.83;11.63;;;8.60;99.90;;;8.26;87.81;98068.91;5103621;27;21042;-72
2023/03/20 03:36:36;;;;;;;12.30;11.13;;;8.60;99.90;;;8.39;87.83;98095.91;5069779;28;20553;-75
2023/03/20 03:39:14;;;;;;;12.13;10.87;;;8.50;99.90;;;8.61;88.63;98141.63;5083140;28;20976;-70
2023/03/20 03:41:47;;;;;;;12.80;11.60;;;8.50;99.90;;;8.58;88.54;98147.44;5095364;28;20482;-71
2023/03/20 03:44:22;;;;;;;14.67;13.23;;;8.40;99.90;;;8.56;89.29;98152.16;5075902;28;20852;-70
2023/03/20 03:46:54;;;;;;;14.30;13.00;;;8.40;99.90;;;8.48;88.23;98127.03;5087646;28;20847;-74
2023/03/20 03:49:26;;;;;;;14.03;12.63;;;8.40;99.90;;;8.63;88.85;98142.25;5092359;28;20468;-71
2023/03/20 03:52:00;;;;;;;15.23;13.63;;;8.40;99.90;;;8.45;88.90;98134.69;5080854;28;20509;-71
2023/03/20 03:54:36;;;;;;;14.03;12.73;;;8.30;99.90;;;8.60;88.36;98151.56;5089970;28;20461;-71
2023/03/20 03:57:07;;;;;;;15.27;12.77;;;8.30;99.90;;;8.42;88.60;98148.53;5074830;28;20455;-72
2023/03/20 03:59:38;;;;;;;17.20;13.37;;;8.30;99.90;;;8.20;89.60;98137.88;5088747;28;20962;-72
2023/03/20 04:02:07;;;;;;;16.00;14.50;;;8.20;99.90;;;8.22;89.46;98150.06;5104524;27;20451;-77
2023/03/20 04:04:36;;;;;;;16.30;14.60;;;8.10;99.90;;;8.12;89.87;98154.16;5089406;28;20583;-71
2023/03/20 04:07:04;;;;;;;15.53;13.93;;;8.00;99.90;;;8.13;90.14;98143.19;5038894;28;1146773;-70
2023/03/20 04:09:33;;;;;;;16.83;14.83;;;8.00;99.90;;;8.16;90.49;98147.34;5077300;28;20487;-73
2023/03/20 04:12:01;;;;;;;17.73;16.03;;;7.90;99.90;;;8.21;90.51;98148.41;5073821;28;20469;-70
2023/03/20 04:14:28;;;;;;;16.30;14.60;;;8.00;99.90;;;8.16;90.04;98148.19;5073717;28;20470;-73
2023/03/20 04:16:55;;;;;;;16.50;14.93;;;8.00;99.90;;;8.06;90.85;98145.84;5079514;28;20490;-71
2023/03/20 04:19:22;;;;;;;16.93;15.13;;;8.00;99.90;;;8.21;90.47;98153.78;5082477;28;20463;-72
2023/03/20 04:21:50;;;;;;;18.67;16.70;;;8.00;99.90;;;8.26;89.95;98155.91;5069113;28;20478;-71
2023/03/20 04:24:17;;;;;;;18.03;16.13;;;8.00;99.90;;;8.10;90.00;98135.50;5068905;28;20945;-77
2023/03/20 04:26:45;;;;;;;18.83;16.93;;;8.10;99.90;;;8.29;89.45;98144.72;5075015;28;20599;-74
2023/03/20 04:29:13;;;;;;;18.13;15.70;;;8.20;99.90;;;8.43;88.71;98150.19;5077544;28;21207;-71
2023/03/20 04:31:40;;;;;;;17.53;15.63;;;8.20;99.90;;;8.33;89.25;98139.78;5074102;28;21099;-71
2023/03/20 04:34:07;;;;;;;18.60;16.70;;;8.20;99.90;;;8.31;88.57;98148.06;5069206;28;20468;-73
2023/03/20 04:36:35;;;;;;;17.87;16.07;;;8.20;99.90;;;8.43;88.48;98158.28;5071506;28;20482;-72
2023/03/20 04:39:02;;;;;;;19.20;17.10;;;8.20;99.90;;;8.31;89.38;98152.63;5073622;28;20448;-74
2023/03/20 04:41:29;;;;;;;18.87;16.87;;;8.20;99.90;;;7.97;90.07;98132.72;5102628;27;20469;-71
2023/03/20 04:43:58;;;;;;;21.30;17.60;;;8.20;99.90;;;8.29;89.41;98160.88;5074707;28;20520;-71
2023/03/20 04:46:27;;;;;;;20.07;17.90;;;8.20;99.90;;;8.31;88.53;98164.22;5087607;28;20471;-76
2023/03/20 04:48:54;;;;;;;19.97;17.87;;;8.20;99.90;;;8.29;88.85;98165.47;5073829;28;20453;-73
2023/03/20 04:51:23;;;;;;;22.00;19.67;;;8.20;99.90;;;8.24;89.32;98157.97;5080413;28;20443;-72
2023/03/20 04:53:50;;;;;;;20.30;18.00;;;8.20;99.90;;;8.33;89.08;98166.72;5082540;28;20455;-71
2023/03/20 04:56:18;;;;;;;22.40;19.27;;;8.20;99.90;;;8.42;88.36;98164.69;5097577;28;20438;-73
2023/03/20 04:58:45;;;;;;;24.60;20.43;;;8.20;99.90;;;8.15;88.86;98151.06;5106984;28;20962;-73
2023/03/20 05:01:14;;;;;;;22.13;19.10;;;8.20;99.90;;;8.05;90.01;98170.25;5113975;27;20840;-73
2023/03/20 05:03:43;;;;;;;24.10;21.53;;;8.10;99.90;;;8.22;88.87;98162.72;5083692;28;20451;-73
2023/03/20 05:06:10;;;;;;;22.33;19.93;;;8.10;99.90;;;8.31;88.53;98168.78;5104695;27;20472;-73
2023/03/20 05:08:38;;;;;;;22.90;20.30;;;8.20;99.90;;;8.07;88.45;98146.66;5089988;28;20448;-74
2023/03/20 05:11:07;;;;;;;24.30;20.17;;;8.10;99.90;;;8.17;88.49;98192.06;5082333;28;21039;-72
2023/03/20 05:13:34;;;;;;;22.90;20.47;;;8.10;99.90;;;8.10;88.79;98191.19;5081558;28;20441;-70
2023/03/20 05:16:02;;;;;;;23.27;20.60;;;8.10;99.90;;;8.12;88.69;98198.06;5101644;27;20544;-71
2023/03/20 05:18:30;;;;;;;24.60;20.00;;;8.10;99.90;;;8.19;88.71;98193.53;5086307;28;20451;-71
2023/03/20 05:20:57;;;;;;;23.77;20.03;;;8.00;99.90;;;8.28;88.33;98196.09;5084780;28;20479;-71
2023/03/20 05:23:26;;;;;;;24.00;19.97;;;8.10;99.90;;;8.35;87.90;98195.13;5080154;28;20447;-71
2023/03/20 05:25:53;;;;;;;20.63;18.43;;;8.10;99.90;;;8.26;87.24;98192.75;5079618;28;20470;-71
2023/03/20 05:28:20;;;;;;;22.00;19.47;;;8.20;99.90;;;8.31;87.37;98201.91;5091139;28;20451;-71
2023/03/20 05:30:48;;;;;;;23.17;20.67;;;8.20;99.90;;;8.22;88.49;98197.72;5120436;27;20459;-72
2023/03/20 05:33:15;;;;;;;25.57;20.20;;;8.20;99.90;;;8.07;88.99;98197.78;5104186;27;20470;-75
2023/03/20 05:35:44;;;;;;;24.50;20.07;;;8.20;99.90;;;8.10;89.16;98204.66;5072585;28;20973;-70
2023/03/20 05:38:11;;;;;;;21.10;18.67;;;8.10;99.90;;;8.30;88.34;98204.81;5074350;28;20459;-69
2023/03/20 05:40:40;;;;;;;22.80;20.37;;;8.20;99.90;;;7.88;87.91;98138.25;5069226;28;20462;-73
2023/03/20 05:43:08;;;;;;;22.80;19.33;;;8.20;99.90;;;8.38;87.52;98196.56;5069248;28;20535;-71
2023/03/20 05:45:35;;;;;;;22.33;20.03;;;8.30;99.90;;;8.48;87.29;98202.44;5075263;28;20530;-69
2023/03/20 05:48:03;;;;;;;22.53;20.13;;;8.30;99.90;;;8.48;86.93;98206.97;5069598;28;20474;-70
2023/03/20 05:50:30;;;;;;;22.83;19.70;;;8.40;99.90;;;8.56;87.03;98206.88;5069683;28;20455;-73
2023/03/20 05:52:59;;;;;;;21.10;18.90;;;8.40;99.90;;;8.50;87.31;98207.66;5069525;28;20454;-73
2023/03/20 05:55:26;;;;;;;21.23;18.93;;;8.40;99.90;;;8.64;86.58;98216.66;5082576;27;20501;-74
2023/03/20 05:57:54;;;;;;;20.93;18.10;;;8.40;99.90;;;8.72;86.56;98213.81;5072807;28;20456;-73
2023/03/20 06:00:22;;;;;;;21.40;19.10;;;8.50;99.90;;;8.75;85.58;98212.56;5071420;28;20459;-72
2023/03/20 06:02:50;;;;;;;21.40;18.83;;;8.60;99.90;;;8.76;85.93;98219.59;5075610;28;20933;-72
2023/03/20 06:05:17;;;;;;;20.50;18.50;;;8.60;99.90;;;8.71;85.94;98214.81;5071766;28;20551;-73
2023/03/20 06:07:45;;;;;;;20.77;18.60;;;8.60;99.90;;;8.54;85.86;98210.78;5080472;28;20462;-70
2023/03/20 06:10:13;;;;;;;20.83;18.67;;;8.60;99.90;;;8.98;86.27;98225.75;5070342;28;20452;-72
2023/03/20 06:12:41;;;;;;;20.43;17.90;;;8.70;99.90;;;9.17;84.85;98228.72;5075400;28;20509;-74
2023/03/20 06:15:09;;;;;;;18.93;17.03;;;8.90;99.90;;;9.15;84.12;98239.72;5082926;28;20456;-73
2023/03/20 06:17:37;;;;;;;18.40;16.47;;;9.00;99.90;;;9.01;84.51;98240.69;5079445;28;20451;-72
2023/03/20 06:20:05;;;;;;;19.20;17.30;;;9.00;99.70;;;9.04;84.99;98243.81;5075592;28;20649;-74
2023/03/20 06:22:32;;;;;;;19.40;17.10;;;9.00;99.90;;;9.09;84.71;98245.88;5086131;28;20470;-72
2023/03/20 06:25:00;;;;;;;18.07;16.27;;;9.00;99.90;;;9.24;84.46;98253.00;5092976;28;20454;-75
2023/03/20 06:27:29;;;;;;;21.63;18.97;;;9.00;99.90;;;9.17;84.22;98253.81;5080355;28;20494;-72
2023/03/20 06:29:57;;;;;;;19.70;17.63;;;9.00;99.90;;;9.33;83.60;98251.81;5079635;28;20475;-75
2023/03/20 06:32:25;;;;;;;18.83;16.83;;;9.00;99.90;;;9.23;83.62;98251.34;5082590;28;20534;-73
2023/03/20 06:34:52;;;;;;;17.83;16.03;;;9.10;99.90;;;9.24;83.62;98251.16;5083490;28;20452;-77
2023/03/20 06:37:20;;;;;;;19.37;17.40;;;9.10;99.80;;;9.35;83.41;98242.50;5109319;27;21075;-73
2023/03/20 06:39:48;;;;;;;17.63;15.83;;;9.20;99.60;;;9.43;83.73;98246.03;5086040;28;20461;-73
2023/03/20 06:42:15;;;;;;;17.80;15.30;;;9.20;99.20;;;9.37;82.90;98244.97;5085824;28;20451;-73
2023/03/20 06:44:44;;;;;;;17.57;15.77;;;9.20;99.30;;;9.27;83.30;98245.34;5072632;28;20474;-71
2023/03/20 06:47:11;;;;;;;15.47;13.97;;;9.20;98.20;;;9.50;82.69;98249.59;5077239;28;20479;-72
2023/03/20 06:49:39;;;;;;;18.70;16.70;;;9.30;98.30;;;9.52;82.57;98227.78;5080008;28;20469;-73
2023/03/20 06:52:06;;;;;;;27.67;16.80;;;9.40;98.20;;;9.70;81.39;98251.50;5090305;27;20467;-70
2023/03/20 06:54:33;;;;;;;16.07;14.40;;;9.50;97.90;;;9.83;81.08;98254.25;5098676;27;20459;-73
2023/03/20 06:57:01;;;;;;;18.70;16.47;;;9.60;97.00;;;9.90;81.16;98257.75;5088807;28;20453;-74
2023/03/20 06:59:28;;;;;;;16.30;14.27;;;9.60;96.80;;;9.76;80.85;98253.38;5077151;28;20467;-72
2023/03/20 07:01:57;;;;;;;16.70;15.10;;;9.70;95.60;;;9.81;81.45;98255.47;5086211;28;20444;-71
2023/03/20 07:04:25;;;;;;;16.33;14.77;;;9.60;96.00;;;9.75;80.72;98246.31;5092791;27;20467;-70
2023/03/20 07:06:52;;;;;;;14.70;13.30;;;9.70;95.30;;;9.97;80.35;98244.28;5098522;28;20570;-75
2023/03/20 07:09:20;;;;;;;14.40;12.90;;;9.80;94.90;;;9.82;80.19;98252.56;5076254;28;21011;-73
2023/03/20 07:11:48;;;;;;;14.17;12.60;;;9.80;93.90;;;9.80;80.57;98229.53;5119323;27;20458;-70
2023/03/20 07:14:15;;;;;;;14.90;13.30;;;9.80;95.10;;;10.13;78.81;98245.75;5079926;28;20505;-72
2023/03/20 07:16:43;;;;;;;14.73;13.23;;;10.00;93.60;;;9.85;80.75;98246.75;5092537;28;20825;-73
2023/03/20 07:19:12;;;;;;;14.57;13.17;;;9.80;95.10;;;10.21;79.09;98237.44;5077037;28;20436;-72
2023/03/20 07:21:39;;;;;;;14.37;13.00;;;9.90;95.20;;;9.58;79.33;98179.25;5119927;27;21030;-72
2023/03/20 07:24:07;;;;;;;14.53;13.17;;;10.00;93.10;;;10.37;78.02;98246.16;5079060;28;20453;-73
2023/03/20 07:26:34;;;;;;;13.50;12.20;;;10.00;93.50;;;10.63;77.56;98258.88;5127428;27;20478;-72
2023/03/20 07:29:02;;;;;;;12.47;11.37;;;10.20;92.80;;;10.63;76.35;98255.31;5088483;28;20477;-72
2023/03/20 07:31:31;;;;;;;13.30;12.10;;;10.40;91.60;;;10.55;76.80;98263.66;5077271;28;20520;-71
2023/03/20 07:33:58;;;;;;;13.10;11.90;;;10.40;91.70;;;10.28;78.30;98261.75;5073620;28;20466;-71
2023/03/20 07:36:27;;;;;;;12.30;11.10;;;10.30;92.00;;;10.31;78.15;98260.50;5097401;27;20478;-73
2023/03/20 07:38:55;;;;;;;11.60;10.50;;;10.30;92.10;;;10.73;75.98;98263.84;5084569;28;20460;-69
2023/03/20 07:41:23;;;;;;;10.17;9.20;;;10.40;91.50;;;10.63;76.16;98263.44;5074462;28;20451;-70
2023/03/20 07:43:50;;;;;;;10.10;9.20;;;10.50;91.00;;;10.89;75.65;98264.44;5086618;28;20817;-69
2023/03/20 07:46:18;;;;;;;10.90;9.90;;;10.60;91.00;;;10.80;75.24;98253.00;5089462;28;20471;-66
2023/03/20 07:48:45;;;;;;;10.90;9.90;;;10.70;90.30;;;11.01;74.79;98268.16;5083099;28;20458;-68
2023/03/20 07:51:13;;;;;;;9.97;8.97;;;10.70;90.30;;;11.13;74.36;98264.75;5106778;27;20474;-68
2023/03/20 07:53:41;;;;;;;9.50;8.60;;;10.90;90.00;;;10.90;74.47;98261.50;5104134;27;20448;-71
2023/03/20 07:56:10;;;;;;;9.70;8.80;;;10.70;90.00;;;10.69;76.19;98262.59;5083240;28;20455;-69
2023/03/20 07:58:38;;;;;;;9.03;8.10;;;10.70;90.50;;;10.70;75.84;98260.72;5078830;28;20473;-67
2023/03/20 08:01:05;;;;;;;8.57;7.77;;;10.60;90.70;;;11.22;74.65;98260.78;5079793;28;20451;-68
2023/03/20 08:03:32;;;;;;;9.47;8.60;;;10.90;90.30;;;11.23;73.70;98262.44;5086729;28;20455;-67
2023/03/20 08:06:00;;;;;;;8.07;7.37;;;11.10;89.10;;;11.25;73.34;98263.06;5070754;28;20490;-67
2023/03/20 08:08:27;;;;;;;9.20;8.40;;;11.10;88.90;;;11.49;72.66;98266.09;5101853;27;21009;-67
2023/03/20 08:10:56;;;;;;;9.40;8.40;;;11.20;88.40;;;11.51;72.02;98272.13;5075997;28;20464;-68
2023/03/20 08:13:23;;;;;;;9.60;8.53;;;11.40;87.30;;;11.64;71.65;98262.28;5090623;28;20448;-66
2023/03/20 08:15:51;;;;;;;8.57;7.80;;;11.50;86.90;;;11.76;71.55;98260.56;5094952;27;20452;-67
2023/03/20 08:18:21;;;;;;;7.83;7.13;;;11.50;86.80;;;11.71;70.75;98263.91;5086450;28;20534;-67
2023/03/20 08:20:49;;;;;;;7.97;7.17;;;11.60;86.10;;;11.95;69.93;98257.94;5086787;28;20486;-67
2023/03/20 08:23:16;;;;;;;7.43;6.63;;;11.70;85.90;;;11.93;69.73;98262.75;5080984;28;20455;-67
2023/03/20 08:25:48;;;;;;;6.93;6.30;;;11.80;85.00;;;11.96;69.47;98262.28;5097614;28;20455;-67
2023/03/20 08:28:16;;;;;;;7.17;6.50;;;11.90;84.80;;;11.68;70.30;98261.63;5092320;28;20686;-67
2023/03/20 08:30:44;;;;;;;8.43;7.03;;;11.70;84.60;;;11.89;70.00;98257.72;5086679;28;20464;-68
2023/03/20 08:33:12;;;;;;;8.43;6.83;;;11.80;84.90;;;12.07;69.46;98252.66;5080808;28;20505;-71
2023/03/20 08:35:39;;;;;;;6.30;5.70;;;11.90;84.80;;;12.00;69.29;98258.09;5100423;28;20441;-67
2023/03/20 08:38:07;;;;;;;9.37;6.47;;;11.90;84.40;;;11.88;69.07;98256.06;5079322;28;20451;-66
2023/03/20 08:40:34;;;;;;;6.67;5.80;;;11.90;84.00;;;11.85;69.23;98259.22;5114461;27;20448;-67
2023/03/20 08:43:02;;;;;;;7.23;6.53;;;11.90;84.10;;;12.22;68.78;98258.59;5087809;28;20453;-66
2023/03/20 08:45:31;;;;;;;7.00;6.40;;;12.00;84.30;;;12.47;67.79;98264.00;5078885;28;20567;-67
2023/03/20 08:47:58;;;;;;;11.23;7.40;;;12.20;84.00;;;12.41;68.10;98254.06;5104722;27;20474;-67
2023/03/20 08:50:25;;;;;;;6.43;5.83;;;12.30;83.60;;;12.34;67.98;98264.13;5104026;27;20459;-67
2023/03/20 08:52:54;;;;;;;5.73;5.23;;;12.30;83.30;;;12.39;67.89;98258.03;5098074;27;20456;-67
2023/03/20 08:55:22;;;;;;;6.83;6.00;;;12.40;83.20;;;12.27;68.80;98247.91;5073385;28;21123;-67
2023/03/20 08:57:49;;;;;;;6.17;5.57;;;12.20;83.60;;;12.60;67.22;98264.94;5090794;28;20451;-67
2023/03/20 09:00:19;;;;;;;7.00;6.30;;;12.40;83.10;;;12.14;67.84;98259.69;5081235;28;20435;-67
2023/03/20 09:02:47;;;;;;;6.10;5.50;;;12.40;83.00;;;12.19;68.50;98267.16;5093018;28;20446;-67
2023/03/20 09:05:15;;;;;;;5.67;5.17;;;12.10;83.40;;;12.50;67.35;98267.31;5082095;28;20483;-68
2023/03/20 09:07:42;;;;;;;6.20;5.60;;;12.20;83.10;;;12.30;67.48;98265.63;5098844;27;20548;-68
2023/03/20 09:10:12;;;;;;;6.10;5.60;;;12.30;82.90;;;12.37;67.13;98266.41;5096367;27;20448;-68
2023/03/20 09:12:39;;;;;;;6.10;5.60;;;12.30;82.70;;;12.70;67.05;98273.41;5122724;27;20545;-67
2023/03/20 09:15:08;;;;;;;5.97;5.47;;;12.40;83.20;;;12.67;65.90;98268.44;5086192;28;20454;-67
2023/03/20 09:17:35;;;;;;;5.70;5.20;;;12.50;82.50;;;12.83;65.74;98282.47;5085529;28;21101;-66
2023/03/20 09:20:05;;;;;;;6.00;5.40;;;12.60;82.40;;;12.60;66.75;98278.50;5090019;28;20517;-66
2023/03/20 09:22:33;;;;;;;7.67;5.70;;;12.40;82.50;;;12.95;65.19;98280.66;5093093;28;20933;-67
2023/03/20 09:25:01;;;;;;;5.53;5.03;;;12.60;82.20;;;12.83;65.76;98282.47;5066413;28;20454;-67
2023/03/20 09:27:28;;;;;;;6.00;5.40;;;12.70;82.10;;;12.59;66.12;98284.97;5130171;27;20463;-67
2023/03/20 09:29:55;;;;;;;5.23;4.60;;;12.60;81.90;;;12.16;67.33;98295.50;5077649;28;20472;-67
2023/03/20 09:32:22;;;;;;;5.17;4.67;;;12.30;82.00;;;12.68;66.55;98280.09;5083574;28;21012;-68
2023/03/20 09:34:50;;;;;;;5.87;5.27;;;12.40;82.60;;;12.57;66.84;98285.19;5077167;28;20452;-67
2023/03/20 09:37:18;;;;;;;5.20;4.70;;;12.50;82.30;;;12.49;66.48;98290.91;5113674;27;20460;-67
2023/03/20 09:39:46;;;;;;;5.53;5.03;;;12.50;82.20;;;12.62;66.49;98276.41;5108902;27;20647;-67
2023/03/20 09:42:30;;;;;;;5.97;5.20;;;12.50;82.10;;;12.95;64.99;98269.00;5110247;27;20522;-67
2023/03/20 09:45:05;;;;;;;6.13;4.70;;;12.70;81.80;;;12.95;64.29;98250.81;5099687;27;21029;-67
2023/03/20 09:47:40;;;;;;;5.70;5.20;;;13.00;81.40;;;13.41;63.48;98289.34;5085553;28;20508;-67
2023/03/20 09:50:29;;;;;;;5.70;5.20;;;13.20;80.90;;;12.88;65.35;98297.00;5073784;28;20950;-67
2023/03/20 09:53:05;;;;;;;5.90;5.13;;;12.90;81.40;;;13.44;63.51;98288.09;5092256;27;20453;-66
2023/03/20 09:55:36;;;;;;;7.03;5.30;;;13.10;81.00;;;13.15;63.79;98285.88;5085222;28;20440;-67
2023/03/20 09:58:13;;;;;;;6.40;5.20;;;13.20;80.40;;;12.88;64.56;98288.84;5085413;28;20857;-66
2023/03/20 10:00:45;;;;;;;6.77;4.70;;;13.00;80.60;;;12.78;64.98;98287.72;5080323;28;20465;-68
2023/03/20 10:03:20;;;;;;;7.83;4.47;;;12.90;80.70;;;12.29;65.13;98251.25;5105398;28;20491;-68
2023/03/20 10:05:56;;;;;;;6.73;5.30;;;12.80;80.50;;;12.79;65.19;98286.66;5087739;28;20465;-67
2023/03/20 10:08:30;;;;;;;5.57;4.97;;;12.70;81.10;;;12.94;64.84;98294.47;5084727;28;20485;-66
2023/03/20 10:11:11;;;;;;;5.40;4.47;;;12.90;81.10;;;12.80;65.26;98282.91;5108746;28;20458;-67
2023/03/20 10:13:58;;;;;;;5.40;4.20;;;12.80;80.90;;;12.90;65.19;98283.22;5089985;28;20455;-67
2023/03/20 10:16:42;;;;;;;5.17;4.67;;;12.80;81.10;;;13.03;63.97;98277.66;5080016;28;20501;-68
2023/03/20 10:19:21;;;;;;;8.30;4.97;;;12.90;80.90;;;13.26;64.40;98286.19;5091097;28;20480;-67
2023/03/20 10:21:53;;;;;;;5.40;4.80;;;13.00;80.80;;;13.24;63.45;98286.41;5083060;28;20455;-67
2023/03/20 10:24:29;;;;;;;5.23;4.73;;;13.20;80.40;;;13.22;62.94;98287.69;5096968;28;20872;-68
2023/03/20 10:27:03;;;;;;;5.03;4.00;;;13.20;79.80;;;13.02;63.55;98292.28;5091794;28;20878;-68
2023/03/20 10:29:43;;;;;;;4.30;3.87;;;13.10;79.90;;;12.91;63.68;98282.16;5097684;28;20475;-67
2023/03/20 10:32:19;;;;;;;5.47;4.87;;;12.90;79.80;;;13.29;63.31;98289.28;5114320;27;20449;-68
2023/03/20 10:35:00;;;;;;;5.40;4.70;;;13.20;80.00;;;13.04;63.31;98283.91;5103006;27;20539;-66
2023/03/20 10:37:45;;;;;;;5.03;4.00;;;13.10;79.50;;;13.00;63.23;98272.69;5094453;28;20460;-66
2023/03/20 10:40:30;;;;;;;4.40;4.00;;;13.10;79.80;;;13.27;62.37;98277.00;5107626;27;20440;-68